Time,TemperatureF,DewpointF,PressureIn,WindDirection,WindDirectionDegrees,WindSpeedMPH,WindSpeedGustMPH,Humidity,HourlyPrecipIn,Conditions,Clouds,dailyrainin,SoftwareType,DateUTC
2013-06-17 00:01:00,75.0,67.3,30.03,NE,45,8.1,8.1,77,0.00,CLR,SKC,0.00,WeatherDisplay:10.37,2013-06-17 04:01:00,
2013-06-17 00:02:00,75.0,67.3,30.03,NE,45,8.1,8.1,77,0.00,CLR,SKC,0.00,WeatherDisplay:10.37,2013-06-17 04:02:00,
2013-06-17 00:04:00,75.0,67.3,30.03,NE,45,8.1,8.1,77,0.00,CLR,SKC,0.00,WeatherDisplay:10.37,2013-06-17 04:04:00,
2013-06-17 00:06:00,75.0,67.3,30.03,NE,45,8.1,8.1,77,0.00,CLR,SKC,0.00,WeatherDisplay:10.37,2013-06-17 04:06:00,
2013-06-17 00:11:00,74.8,67.1,30.03,SE,135,12.7,12.7,77,0.00,CLR,SKC,0.00,WeatherDisplay:10.37,2013-06-17 04:11:00,
2013-06-17 00:16:00,74.7,67.3,30.03,SE,135,8.1,8.1,78,0.00,CLR,SKC,0.00,WeatherDisplay:10.37,2013-06-17 04:16:00,
2013-06-17 00:21:00,74.5,67.2,30.03,East,90,8.1,8.1,78,0.00,CLR,SKC,0.00,WeatherDisplay:10.37,2013-06-17 04:21:00,
2013-06-17 00:26:00,74.3,67.0,30.03,SE,135,8.1,8.1,78,0.00,CLR,SKC,0.00,WeatherDisplay:10.37,2013-06-17 04:26:00,
2013-06-17 00:31:00,74.3,67.0,30.03,NE,45,5.8,5.8,78,0.00,CLR,SKC,0.00,WeatherDisplay:10.37,2013-06-17 04:31:00,
2013-06-17 00:36:00,74.1,67.2,30.03,SE,135,8.1,8.1,79,0.00,CLR,SKC,0.00,WeatherDisplay:10.37,2013-06-17 04:36:00,
2013-06-17 00:41:00,74.1,67.2,30.03,ESE,112,8.1,8.1,79,0.00,CLR,SKC,0.00,WeatherDisplay:10.37,2013-06-17 04:41:00,
2013-06-17 00:46:00,73.9,67.0,30.03,East,90,10.4,10.4,79,0.00,CLR,SKC,0.00,WeatherDisplay:10.37,2013-06-17 04:46:00,
2013-06-17 00:51:00,73.9,67.0,30.03,SE,135,8.1,8.1,79,0.00,CLR,SKC,0.00,WeatherDisplay:10.37,2013-06-17 04:51:00,
2013-06-17 00:56:00,73.9,67.0,30.03,East,90,6.9,6.9,79,0.00,CLR,SKC,0.00,WeatherDisplay:10.37,2013-06-17 04:56:00,
2013-06-17 01:01:00,73.8,66.8,30.03,SE,135,3.5,3.5,79,0.00,CLR,SKC,0.00,WeatherDisplay:10.37,2013-06-17 05:01:00,
2013-06-17 01:06:00,73.9,67.0,30.03,NE,45,5.8,5.8,79,0.00,CLR,SKC,0.00,WeatherDisplay:10.37,2013-06-17 05:06:00,
2013-06-17 01:11:00,73.8,66.8,30.03,NW,315,8.1,8.1,79,0.00,CLR,SKC,0.00,WeatherDisplay:10.37,2013-06-17 05:11:00,
2013-06-17 01:16:00,73.6,66.7,30.03,East,90,5.8,5.8,79,0.00,CLR,SKC,0.00,WeatherDisplay:10.37,2013-06-17 05:16:00,
2013-06-17 01:21:00,73.4,66.9,30.03,East,90,5.8,5.8,80,0.00,CLR,SKC,0.00,WeatherDisplay:10.37,2013-06-17 05:21:00,
2013-06-17 01:26:00,73.4,66.9,30.03,NE,45,3.5,3.5,80,0.00,CLR,SKC,0.00,WeatherDisplay:10.37,2013-06-17 05:26:00,
2013-06-17 01:31:00,73.2,66.7,30.03,SE,135,3.5,3.5,80,0.00,CLR,SKC,0.00,WeatherDisplay:10.37,2013-06-17 05:31:00,
2013-06-17 01:36:00,73.2,66.7,30.03,East,90,4.6,4.6,80,0.00,CLR,SKC,0.00,WeatherDisplay:10.37,2013-06-17 05:36:00,
2013-06-17 01:41:00,73.0,66.5,30.03,East,90,4.6,4.6,80,0.00,CLR,SKC,0.00,WeatherDisplay:10.37,2013-06-17 05:41:00,
2013-06-17 01:46:00,73.0,66.5,30.03,East,90,8.1,8.1,80,0.00,CLR,SKC,0.00,WeatherDisplay:10.37,2013-06-17 05:46:00,
2013-06-17 01:51:00,73.0,66.5,30.03,ENE,68,5.8,5.8,80,0.00,CLR,SKC,0.00,WeatherDisplay:10.37,2013-06-17 05:51:00,
2013-06-17 01:56:00,72.9,66.3,30.03,North,0,5.8,5.8,80,0.00,CLR,SKC,0.00,WeatherDisplay:10.37,2013-06-17 05:56:00,
2013-06-17 02:01:00,72.9,66.3,30.03,ESE,112,4.6,4.6,80,0.00,CLR,SKC,0.00,WeatherDisplay:10.37,2013-06-17 06:01:00,
2013-06-17 02:06:00,72.9,66.3,30.03,ESE,112,4.6,4.6,80,0.00,CLR,SKC,0.00,WeatherDisplay:10.37,2013-06-17 06:06:00,
2013-06-17 02:11:00,72.7,66.2,30.02,East,90,4.6,4.6,80,0.00,CLR,SKC,0.00,WeatherDisplay:10.37,2013-06-17 06:11:00,
2013-06-17 02:16:00,72.7,66.2,30.03,North,0,4.6,4.6,80,0.00,CLR,SKC,0.00,WeatherDisplay:10.37,2013-06-17 06:16:00,
2013-06-17 02:21:00,72.7,66.2,30.02,NNW,338,5.8,5.8,80,0.00,CLR,SKC,0.00,WeatherDisplay:10.37,2013-06-17 06:21:00,
2013-06-17 02:26:00,72.5,66.0,30.02,NE,45,3.5,3.5,80,0.00,CLR,SKC,0.00,WeatherDisplay:10.37,2013-06-17 06:26:00,
2013-06-17 02:31:00,72.5,66.0,30.02,East,90,3.5,3.5,80,0.00,CLR,SKC,0.00,WeatherDisplay:10.37,2013-06-17 06:31:00,
2013-06-17 02:36:00,72.5,66.0,30.02,East,90,6.9,6.9,80,0.00,CLR,SKC,0.00,WeatherDisplay:10.37,2013-06-17 06:36:00,
2013-06-17 02:41:00,72.3,66.2,30.02,NW,315,6.0,6.0,81,0.00,CLR,SKC,0.00,WeatherDisplay:10.37,2013-06-17 06:41:00,
2013-06-17 02:46:00,72.3,66.2,30.02,SE,135,5.8,5.8,81,0.00,CLR,SKC,0.00,WeatherDisplay:10.37,2013-06-17 06:46:00,
2013-06-17 02:51:00,72.5,66.0,30.02,East,90,5.8,5.8,80,0.00,CLR,SKC,0.00,WeatherDisplay:10.37,2013-06-17 06:51:00,
2013-06-17 02:56:00,72.5,66.0,30.02,ENE,68,5.8,5.8,80,0.00,CLR,SKC,0.00,WeatherDisplay:10.37,2013-06-17 06:56:00,
2013-06-17 03:01:00,72.5,66.0,30.02,NW,315,3.5,3.5,80,0.00,CLR,SKC,0.00,WeatherDisplay:10.37,2013-06-17 07:01:00,
2013-06-17 03:06:00,72.5,66.0,30.02,NE,45,3.5,3.5,80,0.00,CLR,SKC,0.00,WeatherDisplay:10.37,2013-06-17 07:06:00,
2013-06-17 03:11:00,72.3,65.8,30.02,ESE,112,5.8,5.8,80,0.00,CLR,SKC,0.00,WeatherDisplay:10.37,2013-06-17 07:11:00,
2013-06-17 03:16:00,72.3,65.8,30.01,North,0,5.8,5.8,80,0.00,CLR,SKC,0.00,WeatherDisplay:10.37,2013-06-17 07:16:00,
2013-06-17 03:21:00,72.3,65.8,30.02,NW,315,3.5,3.5,80,0.00,CLR,SKC,0.00,WeatherDisplay:10.37,2013-06-17 07:21:00,
2013-06-17 03:26:00,72.3,65.8,30.02,SE,135,2.3,2.3,80,0.00,CLR,SKC,0.00,WeatherDisplay:10.37,2013-06-17 07:26:00,
2013-06-17 03:31:00,72.1,65.6,30.01,North,0,5.8,5.8,80,0.00,CLR,SKC,0.00,WeatherDisplay:10.37,2013-06-17 07:31:00,
2013-06-17 03:36:00,72.1,65.6,30.01,East,90,4.6,4.6,80,0.00,CLR,SKC,0.00,WeatherDisplay:10.37,2013-06-17 07:36:00,
2013-06-17 03:41:00,72.1,65.6,30.01,NE,45,5.8,5.8,80,0.00,CLR,SKC,0.00,WeatherDisplay:10.37,2013-06-17 07:41:00,
2013-06-17 03:46:00,72.1,65.6,30.01,SE,135,3.5,3.5,80,0.00,CLR,SKC,0.00,WeatherDisplay:10.37,2013-06-17 07:46:00,
2013-06-17 03:51:00,72.1,65.6,30.01,East,90,5.8,5.8,80,0.00,CLR,SKC,0.00,WeatherDisplay:10.37,2013-06-17 07:51:00,
2013-06-17 03:56:00,72.1,65.6,30.01,NE,45,3.5,3.5,80,0.00,CLR,SKC,0.00,WeatherDisplay:10.37,2013-06-17 07:56:00,
2013-06-17 04:01:00,72.1,65.6,30.01,East,90,3.5,3.5,80,0.00,CLR,SKC,0.00,WeatherDisplay:10.37,2013-06-17 08:01:00,
2013-06-17 04:06:00,72.1,65.6,30.01,East,90,3.5,3.5,80,0.00,CLR,SKC,0.00,WeatherDisplay:10.37,2013-06-17 08:06:00,
2013-06-17 04:11:00,72.1,65.6,30.02,East,90,5.8,5.8,80,0.00,CLR,SKC,0.00,WeatherDisplay:10.37,2013-06-17 08:11:00,
2013-06-17 04:16:00,72.1,65.6,30.01,SE,135,3.5,3.5,80,0.00,CLR,SKC,0.00,WeatherDisplay:10.37,2013-06-17 08:16:00,
2013-06-17 04:21:00,72.1,65.6,30.02,NE,45,3.5,3.5,80,0.00,CLR,SKC,0.00,WeatherDisplay:10.37,2013-06-17 08:21:00,
2013-06-17 04:26:00,72.0,65.5,30.02,WNW,292,2.3,2.3,80,0.00,CLR,SKC,0.00,WeatherDisplay:10.37,2013-06-17 08:26:00,
2013-06-17 04:31:00,71.8,65.3,30.02,NE,45,3.5,3.5,80,0.00,CLR,SKC,0.00,WeatherDisplay:10.37,2013-06-17 08:31:00,
2013-06-17 04:36:00,71.8,65.3,30.01,NE,45,2.3,2.3,80,0.00,CLR,SKC,0.00,WeatherDisplay:10.37,2013-06-17 08:36:00,
2013-06-17 04:41:00,71.6,65.1,30.02,North,0,2.3,2.3,80,0.00,CLR,SKC,0.00,WeatherDisplay:10.37,2013-06-17 08:41:00,
2013-06-17 04:46:00,71.6,65.1,30.02,North,0,3.5,3.5,80,0.00,CLR,SKC,0.00,WeatherDisplay:10.37,2013-06-17 08:46:00,
2013-06-17 04:51:00,71.6,65.1,30.02,North,0,2.3,2.3,80,0.00,CLR,SKC,0.00,WeatherDisplay:10.37,2013-06-17 08:51:00,
2013-06-17 04:56:00,71.6,65.1,30.02,East,90,3.5,3.5,80,0.00,CLR,SKC,0.00,WeatherDisplay:10.37,2013-06-17 08:56:00,
2013-06-17 05:01:00,71.6,65.1,30.02,East,90,4.5,4.5,80,0.00,CLR,SKC,0.00,WeatherDisplay:10.37,2013-06-17 09:01:00,
2013-06-17 05:06:00,71.6,65.1,30.02,East,90,3.5,3.5,80,0.00,CLR,SKC,0.00,WeatherDisplay:10.37,2013-06-17 09:06:00,
2013-06-17 05:11:00,71.4,65.3,30.02,East,90,4.6,4.6,81,0.00,CLR,SKC,0.00,WeatherDisplay:10.37,2013-06-17 09:11:00,
2013-06-17 05:16:00,71.4,65.3,30.02,North,0,4.6,4.6,81,0.00,CLR,SKC,0.00,WeatherDisplay:10.37,2013-06-17 09:16:00,
2013-06-17 05:21:00,71.4,65.3,30.02,East,90,3.5,0.0,81,0.00,CLR,SKC,0.00,WeatherDisplay:10.37,2013-06-17 09:21:00,
2013-06-17 05:26:00,71.4,65.3,30.02,East,90,1.1,3.1,81,0.00,CLR,SKC,0.00,WeatherDisplay:10.37,2013-06-17 09:26:00,
2013-06-17 05:31:00,71.2,65.1,30.02,NE,45,3.5,3.5,81,0.00,CLR,SKC,0.00,WeatherDisplay:10.37,2013-06-17 09:31:00,
2013-06-17 05:36:00,71.2,65.1,30.02,East,90,3.5,3.5,81,0.00,CLR,SKC,0.00,WeatherDisplay:10.37,2013-06-17 09:36:00,
2013-06-17 05:41:00,71.2,65.1,30.02,North,0,3.5,3.5,81,0.00,CLR,SKC,0.00,WeatherDisplay:10.37,2013-06-17 09:41:00,
2013-06-17 05:46:00,71.2,65.1,30.02,East,90,3.5,3.5,81,0.00,CLR,SKC,0.00,WeatherDisplay:10.37,2013-06-17 09:46:00,
2013-06-17 05:51:00,71.2,65.1,30.02,North,0,2.3,2.3,81,0.00,CLR,SKC,0.00,WeatherDisplay:10.37,2013-06-17 09:51:00,
2013-06-17 05:56:00,71.1,64.9,30.02,NE,45,3.5,3.5,81,0.00,CLR,SKC,0.00,WeatherDisplay:10.37,2013-06-17 09:56:00,
2013-06-17 06:01:00,71.1,64.9,30.03,NE,45,1.1,1.1,81,0.00,CLR,SKC,0.00,WeatherDisplay:10.37,2013-06-17 10:01:00,
2013-06-17 06:06:00,71.1,64.9,30.02,NE,45,1.1,1.1,81,0.00,CLR,SKC,0.00,WeatherDisplay:10.37,2013-06-17 10:06:00,
2013-06-17 06:11:00,71.1,64.9,30.02,NE,45,3.5,3.5,81,0.00,CLR,SKC,0.00,WeatherDisplay:10.37,2013-06-17 10:11:00,
2013-06-17 06:16:00,71.1,65.3,30.02,NE,45,2.3,0.0,82,0.00,CLR,SKC,0.00,WeatherDisplay:10.37,2013-06-17 10:16:00,
2013-06-17 06:21:00,71.1,65.3,30.02,North,0,1.1,0.0,82,0.00,CLR,SKC,0.00,WeatherDisplay:10.37,2013-06-17 10:21:00,
2013-06-17 06:26:00,70.9,65.1,30.02,East,90,3.5,3.5,82,0.00,CLR,SKC,0.00,WeatherDisplay:10.37,2013-06-17 10:26:00,
2013-06-17 06:31:00,70.7,64.9,30.02,East,90,4.6,0.0,82,0.00,CLR,SKC,0.00,WeatherDisplay:10.37,2013-06-17 10:31:00,
2013-06-17 06:36:00,70.7,64.9,30.02,South,180,2.3,2.3,82,0.00,CLR,SKC,0.00,WeatherDisplay:10.37,2013-06-17 10:36:00,
2013-06-17 06:41:00,70.7,64.9,30.02,East,90,4.6,4.6,82,0.00,CLR,SKC,0.00,WeatherDisplay:10.37,2013-06-17 10:41:00,
2013-06-17 06:46:00,70.7,64.9,30.02,East,90,3.5,3.5,82,0.00,CLR,SKC,0.00,WeatherDisplay:10.37,2013-06-17 10:46:00,
2013-06-17 06:51:00,70.9,65.1,30.02,NE,45,2.3,2.3,82,0.00,CLR,SKC,0.00,WeatherDisplay:10.37,2013-06-17 10:51:00,
2013-06-17 06:56:00,71.1,65.3,30.02,North,0,3.5,0.0,82,0.00,CLR,SKC,0.00,WeatherDisplay:10.37,2013-06-17 10:56:00,
2013-06-17 07:01:00,71.2,65.5,30.02,East,90,3.5,3.5,82,0.00,CLR,SKC,0.00,WeatherDisplay:10.37,2013-06-17 11:01:00,
2013-06-17 07:06:00,71.6,65.5,30.02,SE,135,3.5,3.5,81,0.00,CLR,SKC,0.00,WeatherDisplay:10.37,2013-06-17 11:06:00,
2013-06-17 07:11:00,72.0,65.8,30.01,North,0,1.1,0.0,81,0.00,CLR,SKC,0.00,WeatherDisplay:10.37,2013-06-17 11:11:00,
2013-06-17 07:16:00,72.5,66.0,30.02,East,90,2.3,2.3,80,0.00,CLR,SKC,0.00,WeatherDisplay:10.37,2013-06-17 11:16:00,
2013-06-17 07:21:00,72.9,66.0,30.02,North,0,5.8,5.8,79,0.00,CLR,SKC,0.00,WeatherDisplay:10.37,2013-06-17 11:21:00,
2013-06-17 07:26:00,73.0,66.1,30.02,East,90,1.1,0.0,79,0.00,CLR,SKC,0.00,WeatherDisplay:10.37,2013-06-17 11:26:00,
2013-06-17 07:31:00,73.2,65.9,30.02,East,90,5.8,5.8,78,0.00,CLR,SKC,0.00,WeatherDisplay:10.37,2013-06-17 11:31:00,
2013-06-17 07:36:00,73.6,66.3,30.02,East,90,4.6,4.6,78,0.00,CLR,SKC,0.00,WeatherDisplay:10.37,2013-06-17 11:36:00,
2013-06-17 07:41:00,73.9,66.6,30.02,East,90,5.8,5.8,78,0.00,CLR,SKC,0.00,WeatherDisplay:10.37,2013-06-17 11:41:00,
2013-06-17 07:46:00,74.3,66.6,30.02,NW,315,5.8,5.8,77,0.00,CLR,SKC,0.00,WeatherDisplay:10.37,2013-06-17 11:46:00,
2013-06-17 07:51:00,74.7,67.0,30.01,East,90,3.5,3.5,77,0.00,CLR,SKC,0.00,WeatherDisplay:10.37,2013-06-17 11:51:00,
2013-06-17 07:56:00,75.2,66.7,30.02,East,90,8.1,8.1,75,0.00,CLR,SKC,0.00,WeatherDisplay:10.37,2013-06-17 11:56:00,
2013-06-17 08:01:00,75.4,66.9,30.02,North,0,6.0,6.0,75,0.00,CLR,SKC,0.00,WeatherDisplay:10.37,2013-06-17 12:01:00,
2013-06-17 08:06:00,75.4,66.5,30.02,NE,45,3.5,3.5,74,0.00,CLR,SKC,0.00,WeatherDisplay:10.37,2013-06-17 12:06:00,
2013-06-17 08:11:00,75.6,66.3,30.02,North,0,5.8,5.8,73,0.00,CLR,SKC,0.00,WeatherDisplay:10.37,2013-06-17 12:11:00,
2013-06-17 08:15:00,89.1,70.3,29.92,East,90,5.0,5.0,54,0.00,CLR,SKC,0.00,WeatherDisplay:10.37,2013-06-17 12:15:00,
2013-06-17 08:16:00,75.7,66.9,30.02,WNW,292,3.5,0.0,74,0.00,CLR,SKC,0.00,WeatherDisplay:10.37,2013-06-17 12:16:00,
2013-06-17 08:21:00,76.6,67.3,30.02,SE,135,5.8,5.8,73,0.00,CLR,SKC,0.00,WeatherDisplay:10.37,2013-06-17 12:21:00,
2013-06-17 08:26:00,76.8,67.5,30.02,NE,45,4.6,4.6,73,0.00,CLR,SKC,0.00,WeatherDisplay:10.37,2013-06-17 12:26:00,
2013-06-17 08:30:00,88.5,69.8,29.93,East,90,5.0,6.0,54,0.00,CLR,SKC,0.00,WeatherDisplay:10.37,2013-06-17 12:30:00,
2013-06-17 08:31:00,76.8,67.1,30.02,North,0,6.9,6.9,72,0.00,CLR,SKC,0.00,WeatherDisplay:10.37,2013-06-17 12:31:00,
2013-06-17 08:36:00,77.4,67.2,30.02,East,90,2.3,2.3,71,0.00,CLR,SKC,0.00,WeatherDisplay:10.37,2013-06-17 12:36:00,
2013-06-17 08:41:00,77.5,66.6,30.02,North,0,3.5,0.0,69,0.00,CLR,SKC,0.00,WeatherDisplay:10.37,2013-06-17 12:41:00,
2013-06-17 08:45:00,87.3,69.1,29.92,East,90,2.0,6.0,55,0.00,CLR,SKC,0.00,WeatherDisplay:10.37,2013-06-17 12:45:00,
2013-06-17 08:46:00,77.7,66.7,30.02,East,90,5.8,5.8,69,0.00,CLR,SKC,0.00,WeatherDisplay:10.37,2013-06-17 12:46:00,
2013-06-17 08:51:00,77.7,66.7,30.02,NNW,338,4.6,4.6,69,0.00,CLR,SKC,0.00,WeatherDisplay:10.37,2013-06-17 12:51:00,
2013-06-17 08:56:00,79.2,67.7,30.02,West,270,3.5,3.5,68,0.00,CLR,SKC,0.00,WeatherDisplay:10.37,2013-06-17 12:56:00,
2013-06-17 09:00:00,84.6,69.6,29.93,East,90,5.0,7.0,61,0.00,CLR,SKC,0.00,WeatherDisplay:10.37,2013-06-17 13:00:00,
2013-06-17 09:01:00,80.4,68.0,30.02,West,270,2.3,0.0,66,0.00,CLR,SKC,0.00,WeatherDisplay:10.37,2013-06-17 13:01:00,
2013-06-17 09:06:00,81.1,67.3,30.01,East,90,8.1,8.1,63,0.00,CLR,SKC,0.00,WeatherDisplay:10.37,2013-06-17 13:06:00,
2013-06-17 09:11:00,81.0,67.2,30.01,West,270,3.5,3.5,63,0.00,CLR,SKC,0.00,WeatherDisplay:10.37,2013-06-17 13:11:00,
2013-06-17 09:15:00,83.3,70.3,29.93,East,90,3.0,7.0,65,0.00,CLR,SKC,0.00,WeatherDisplay:10.37,2013-06-17 13:15:00,
2013-06-17 09:16:00,81.1,67.3,30.02,SE,135,2.3,2.3,63,0.00,CLR,SKC,0.00,WeatherDisplay:10.37,2013-06-17 13:16:00,
2013-06-17 09:21:00,80.8,67.0,30.02,South,180,3.5,4.5,63,0.00,CLR,SKC,0.00,WeatherDisplay:10.37,2013-06-17 13:21:00,
2013-06-17 09:26:00,80.2,67.4,30.01,North,0,5.8,5.8,65,0.00,CLR,SKC,0.00,WeatherDisplay:10.37,2013-06-17 13:26:00,
2013-06-17 09:30:00,82.2,70.2,29.92,East,90,5.0,8.0,67,0.00,CLR,SKC,0.00,WeatherDisplay:10.37,2013-06-17 13:30:00,
2013-06-17 09:31:00,79.7,67.3,30.02,West,270,2.3,2.3,66,0.00,CLR,SKC,0.00,WeatherDisplay:10.37,2013-06-17 13:31:00,
2013-06-17 09:36:00,79.9,67.5,30.01,SE,135,6.9,6.9,66,0.00,CLR,SKC,0.00,WeatherDisplay:10.37,2013-06-17 13:36:00,
2013-06-17 09:41:00,80.2,67.4,30.01,SW,225,5.8,5.8,65,0.00,CLR,SKC,0.00,WeatherDisplay:10.37,2013-06-17 13:41:00,
2013-06-17 09:45:00,81.9,70.3,29.92,East,90,2.0,8.0,68,0.00,CLR,SKC,0.00,WeatherDisplay:10.37,2013-06-17 13:45:00,
2013-06-17 09:46:00,80.4,67.6,30.01,East,90,5.8,5.8,65,0.00,CLR,SKC,0.00,WeatherDisplay:10.37,2013-06-17 13:46:00,
2013-06-17 09:51:00,80.6,67.3,30.01,NW,315,6.9,6.9,64,0.00,CLR,SKC,0.00,WeatherDisplay:10.37,2013-06-17 13:51:00,
2013-06-17 09:56:00,80.8,67.5,30.01,NW,315,5.8,5.8,64,0.00,CLR,SKC,0.00,WeatherDisplay:10.37,2013-06-17 13:56:00,
2013-06-17 10:00:00,81.3,70.6,29.93,East,90,5.0,6.0,70,0.00,CLR,SKC,0.00,WeatherDisplay:10.37,2013-06-17 14:00:00,
2013-06-17 10:01:00,80.8,67.5,30.01,NE,45,5.8,5.8,64,0.00,CLR,SKC,0.00,WeatherDisplay:10.37,2013-06-17 14:01:00,
2013-06-17 10:06:00,80.4,68.0,30.01,NW,315,2.3,2.3,66,0.00,CLR,SKC,0.00,WeatherDisplay:10.37,2013-06-17 14:06:00,
2013-06-17 10:11:00,80.8,67.5,30.01,South,180,4.6,0.0,64,0.00,CLR,SKC,0.00,WeatherDisplay:10.37,2013-06-17 14:11:00,
2013-06-17 10:15:00,80.8,70.5,29.93,SE,135,1.0,6.0,71,0.00,CLR,SKC,0.00,WeatherDisplay:10.37,2013-06-17 14:15:00,
2013-06-17 10:16:00,81.0,67.6,30.01,SW,225,2.3,2.3,64,0.00,CLR,SKC,0.00,WeatherDisplay:10.37,2013-06-17 14:16:00,
2013-06-17 10:21:00,80.8,67.9,30.00,ENE,68,4.6,4.6,65,0.00,CLR,SKC,0.00,WeatherDisplay:10.37,2013-06-17 14:21:00,
2013-06-17 10:26:00,80.1,67.7,30.01,North,0,5.8,5.8,66,0.00,CLR,SKC,0.00,WeatherDisplay:10.37,2013-06-17 14:26:00,
2013-06-17 10:30:00,80.2,70.8,29.94,East,90,3.0,6.0,73,0.00,CLR,SKC,0.00,WeatherDisplay:10.37,2013-06-17 14:30:00,
2013-06-17 10:31:00,79.7,67.3,30.00,NE,45,3.5,3.5,66,0.00,CLR,SKC,0.00,WeatherDisplay:10.37,2013-06-17 14:31:00,
2013-06-17 10:36:00,80.1,68.1,30.00,East,90,8.1,8.1,67,0.00,CLR,SKC,0.00,WeatherDisplay:10.37,2013-06-17 14:36:00,
2013-06-17 10:41:00,81.9,69.8,30.00,ESE,112,4.6,4.6,67,0.00,CLR,SKC,0.00,WeatherDisplay:10.37,2013-06-17 14:41:00,
2013-06-17 10:45:00,79.9,70.4,29.93,East,90,3.0,6.0,73,0.00,CLR,SKC,0.00,WeatherDisplay:10.37,2013-06-17 14:45:00,
2013-06-17 10:46:00,83.5,70.0,30.00,SW,225,8.1,8.1,64,0.00,CLR,SKC,0.00,WeatherDisplay:10.37,2013-06-17 14:46:00,
2013-06-17 10:51:00,82.9,70.0,30.00,East,90,5.8,5.8,65,0.00,CLR,SKC,0.00,WeatherDisplay:10.37,2013-06-17 14:51:00,
2013-06-17 10:56:00,83.3,69.4,30.00,NW,315,2.3,2.3,63,0.00,CLR,SKC,0.00,WeatherDisplay:10.37,2013-06-17 14:56:00,
2013-06-17 11:00:00,79.5,70.5,29.93,SE,135,6.0,8.0,74,0.00,CLR,SKC,0.00,WeatherDisplay:10.37,2013-06-17 15:00:00,
2013-06-17 11:01:00,85.1,70.1,30.00,North,0,6.0,6.0,61,0.00,CLR,SKC,0.00,WeatherDisplay:10.37,2013-06-17 15:01:00,
2013-06-17 11:06:00,84.4,69.0,30.01,NE,45,4.6,4.6,60,0.00,CLR,SKC,0.00,WeatherDisplay:10.37,2013-06-17 15:06:00,
2013-06-17 11:11:00,83.3,69.4,30.00,WNW,292,3.5,3.5,63,0.00,CLR,SKC,0.00,WeatherDisplay:10.37,2013-06-17 15:11:00,
2013-06-17 11:15:00,79.3,70.7,29.95,East,90,3.0,8.0,75,0.00,CLR,SKC,0.00,WeatherDisplay:10.37,2013-06-17 15:15:00,
2013-06-17 11:16:00,83.3,70.3,30.01,NE,45,2.3,2.3,65,0.00,CLR,SKC,0.00,WeatherDisplay:10.37,2013-06-17 15:16:00,
2013-06-17 11:21:00,84.6,70.6,30.00,SE,135,5.8,5.8,63,0.00,CLR,SKC,0.00,WeatherDisplay:10.37,2013-06-17 15:21:00,
2013-06-17 11:26:00,84.0,70.1,30.00,SE,135,8.1,8.1,63,0.00,CLR,SKC,0.00,WeatherDisplay:10.37,2013-06-17 15:26:00,
2013-06-17 11:30:00,78.8,71.0,29.95,SE,135,6.0,8.0,77,0.00,CLR,SKC,0.00,WeatherDisplay:10.37,2013-06-17 15:30:00,
2013-06-17 11:31:00,84.6,70.1,30.00,North,0,6.9,6.9,62,0.00,CLR,SKC,0.00,WeatherDisplay:10.37,2013-06-17 15:31:00,
2013-06-17 11:36:00,84.0,70.5,30.00,NW,315,3.5,3.5,64,0.00,CLR,SKC,0.00,WeatherDisplay:10.37,2013-06-17 15:36:00,
2013-06-17 11:41:00,84.6,70.6,30.00,East,90,4.6,4.6,63,0.00,CLR,SKC,0.00,WeatherDisplay:10.37,2013-06-17 15:41:00,
2013-06-17 11:45:00,78.3,71.6,29.96,SE,135,5.0,8.0,80,0.00,CLR,SKC,0.00,WeatherDisplay:10.37,2013-06-17 15:45:00,
2013-06-17 11:47:00,85.1,71.1,30.00,East,90,5.8,5.8,63,0.00,CLR,SKC,0.00,WeatherDisplay:10.37,2013-06-17 15:47:00,
2013-06-17 11:52:00,86.4,71.3,30.00,SE,135,5.8,5.8,61,0.00,CLR,SKC,0.00,WeatherDisplay:10.37,2013-06-17 15:52:00,
2013-06-17 11:57:00,86.2,69.7,29.99,East,90,8.1,8.1,58,0.00,CLR,SKC,0.00,WeatherDisplay:10.37,2013-06-17 15:57:00,
2013-06-17 12:00:00,77.9,72.3,29.96,East,90,6.0,8.0,83,0.00,CLR,SKC,0.00,WeatherDisplay:10.37,2013-06-17 16:00:00,
2013-06-17 12:02:00,84.4,69.9,30.00,East,90,8.1,8.1,62,0.00,CLR,SKC,0.00,WeatherDisplay:10.37,2013-06-17 16:02:00,
2013-06-17 12:07:00,84.0,70.5,29.99,SE,135,5.8,5.8,64,0.00,CLR,SKC,0.00,WeatherDisplay:10.37,2013-06-17 16:07:00,
2013-06-17 12:12:00,84.6,70.6,29.99,SE,135,6.9,6.9,63,0.00,CLR,SKC,0.00,WeatherDisplay:10.37,2013-06-17 16:12:00,
2013-06-17 12:15:00,77.5,72.3,29.96,NE,45,5.0,8.0,84,0.00,CLR,SKC,0.00,WeatherDisplay:10.37,2013-06-17 16:15:00,
2013-06-17 12:17:00,85.3,70.8,30.00,East,90,8.1,8.1,62,0.00,CLR,SKC,0.00,WeatherDisplay:10.37,2013-06-17 16:17:00,
2013-06-17 12:22:00,84.9,70.9,29.99,East,90,6.9,6.9,63,0.00,CLR,SKC,0.00,WeatherDisplay:10.37,2013-06-17 16:22:00,
2013-06-17 12:27:00,84.9,71.4,30.00,NE,45,9.2,9.2,64,0.00,CLR,SKC,0.00,WeatherDisplay:10.37,2013-06-17 16:27:00,
2013-06-17 12:30:00,77.0,72.1,29.96,ENE,68,6.0,8.0,85,0.00,CLR,SKC,0.00,WeatherDisplay:10.37,2013-06-17 16:30:00,
2013-06-17 12:32:00,84.9,70.9,29.99,West,270,5.8,5.8,63,0.00,CLR,SKC,0.00,WeatherDisplay:10.37,2013-06-17 16:32:00,
2013-06-17 12:37:00,86.0,71.9,29.99,East,90,3.5,5.4,63,0.00,CLR,SKC,0.00,WeatherDisplay:10.37,2013-06-17 16:37:00,
2013-06-17 12:42:00,86.9,71.3,29.99,SE,135,6.9,6.9,60,0.00,CLR,SKC,0.00,WeatherDisplay:10.37,2013-06-17 16:42:00,
2013-06-17 12:45:00,76.5,72.6,29.96,East,90,6.0,9.0,88,0.00,CLR,SKC,0.00,WeatherDisplay:10.37,2013-06-17 16:45:00,
2013-06-17 12:47:00,86.0,70.5,29.99,East,90,5.8,5.8,60,0.00,CLR,SKC,0.00,WeatherDisplay:10.37,2013-06-17 16:47:00,
2013-06-17 12:52:00,86.0,71.0,29.99,East,90,10.4,10.4,61,0.00,CLR,SKC,0.00,WeatherDisplay:10.37,2013-06-17 16:52:00,
2013-06-17 12:57:00,86.0,71.9,29.99,SE,135,4.6,4.6,63,0.00,CLR,SKC,0.00,WeatherDisplay:10.37,2013-06-17 16:57:00,
2013-06-17 13:00:00,76.1,72.3,29.96,East,90,8.0,10.0,88,0.00,CLR,SKC,0.00,WeatherDisplay:10.37,2013-06-17 17:00:00,
2013-06-17 13:02:00,86.2,72.1,29.99,SE,135,4.6,4.6,63,0.00,CLR,SKC,0.00,WeatherDisplay:10.37,2013-06-17 17:02:00,
2013-06-17 13:07:00,86.2,70.7,29.99,SE,135,10.4,10.4,60,0.00,CLR,SKC,0.00,WeatherDisplay:10.37,2013-06-17 17:07:00,
2013-06-17 13:12:00,85.3,71.7,29.99,SE,135,8.1,8.1,64,0.00,CLR,SKC,0.00,WeatherDisplay:10.37,2013-06-17 17:12:00,
2013-06-17 13:15:00,75.6,72.1,29.97,NE,45,5.0,10.0,89,0.00,CLR,SKC,0.00,WeatherDisplay:10.37,2013-06-17 17:15:00,
2013-06-17 13:17:00,85.8,71.3,29.99,NE,45,4.6,4.6,62,0.00,CLR,SKC,0.00,WeatherDisplay:10.37,2013-06-17 17:17:00,
2013-06-17 13:22:00,86.0,71.5,29.99,North,0,5.8,5.8,62,0.00,CLR,SKC,0.00,WeatherDisplay:10.37,2013-06-17 17:22:00,
2013-06-17 13:27:00,85.8,71.3,29.99,NW,315,3.5,3.5,62,0.00,CLR,SKC,0.00,WeatherDisplay:10.37,2013-06-17 17:27:00,
2013-06-17 13:30:00,75.4,71.6,29.96,SE,135,6.0,8.0,88,0.00,CLR,SKC,0.00,WeatherDisplay:10.37,2013-06-17 17:30:00,
2013-06-17 13:32:00,85.1,71.1,29.99,North,0,3.5,3.5,63,0.00,CLR,SKC,0.00,WeatherDisplay:10.37,2013-06-17 17:32:00,
2013-06-17 13:38:00,84.6,70.1,29.99,NW,315,3.5,3.5,62,0.00,CLR,SKC,0.00,WeatherDisplay:10.37,2013-06-17 17:38:00,
2013-06-17 13:43:00,84.0,71.0,29.99,NE,45,4.6,4.6,65,0.00,CLR,SKC,0.00,WeatherDisplay:10.37,2013-06-17 17:43:00,
2013-06-17 13:45:00,75.2,71.4,29.96,SE,135,1.0,8.0,88,0.00,CLR,SKC,0.00,WeatherDisplay:10.37,2013-06-17 17:45:00,
2013-06-17 13:48:00,83.8,70.8,29.99,North,0,3.5,0.0,65,0.00,CLR,SKC,0.00,WeatherDisplay:10.37,2013-06-17 17:48:00,
2013-06-17 13:53:00,84.0,71.0,29.99,West,270,3.5,3.5,65,0.00,CLR,SKC,0.00,WeatherDisplay:10.37,2013-06-17 17:53:00,
2013-06-17 13:58:00,83.3,70.8,29.99,North,0,3.5,3.5,66,0.00,CLR,SKC,0.00,WeatherDisplay:10.37,2013-06-17 17:58:00,
2013-06-17 14:00:00,74.8,71.4,29.96,SE,135,3.0,4.0,89,0.00,CLR,SKC,0.00,WeatherDisplay:10.37,2013-06-17 18:00:00,
2013-06-17 14:03:00,83.3,71.2,29.99,North,0,3.5,3.5,67,0.00,CLR,SKC,0.00,WeatherDisplay:10.37,2013-06-17 18:03:00,
2013-06-17 14:08:00,83.7,71.5,29.99,NW,315,2.3,2.3,67,0.00,CLR,SKC,0.00,WeatherDisplay:10.37,2013-06-17 18:08:00,
2013-06-17 14:13:00,84.4,71.8,29.99,SW,225,2.3,2.3,66,0.00,CLR,SKC,0.00,WeatherDisplay:10.37,2013-06-17 18:13:00,
2013-06-17 14:15:00,74.8,71.0,29.96,SE,135,3.0,5.0,88,0.00,CLR,SKC,0.00,WeatherDisplay:10.37,2013-06-17 18:15:00,
2013-06-17 14:18:00,85.3,72.2,29.98,SW,225,4.6,0.0,65,0.00,CLR,SKC,0.00,WeatherDisplay:10.37,2013-06-17 18:18:00,
2013-06-17 14:23:00,85.6,72.1,29.98,NW,315,3.5,3.5,64,0.00,CLR,SKC,0.00,WeatherDisplay:10.37,2013-06-17 18:23:00,
2013-06-17 14:28:00,85.5,71.4,29.98,SSW,202,5.8,5.8,63,0.00,CLR,SKC,0.00,WeatherDisplay:10.37,2013-06-17 18:28:00,
2013-06-17 14:30:00,74.7,70.9,29.95,East,90,2.0,5.0,88,0.00,CLR,SKC,0.00,WeatherDisplay:10.37,2013-06-17 18:30:00,
2013-06-17 14:33:00,85.6,71.6,29.98,South,180,3.5,3.5,63,0.00,CLR,SKC,0.00,WeatherDisplay:10.37,2013-06-17 18:33:00,
2013-06-17 14:38:00,85.6,72.1,29.97,East,90,3.5,3.5,64,0.00,CLR,SKC,0.00,WeatherDisplay:10.37,2013-06-17 18:38:00,
2013-06-17 14:43:00,85.5,71.9,29.98,NW,315,5.8,5.8,64,0.00,CLR,SKC,0.00,WeatherDisplay:10.37,2013-06-17 18:43:00,
2013-06-17 14:45:00,74.3,70.8,29.95,North,0,2.0,4.0,89,0.00,CLR,SKC,0.00,WeatherDisplay:10.37,2013-06-17 18:45:00,
2013-06-17 14:48:00,85.1,71.5,29.97,NE,45,5.8,5.8,64,0.00,CLR,SKC,0.00,WeatherDisplay:10.37,2013-06-17 18:48:00,
2013-06-17 14:53:00,85.3,72.2,29.97,NW,315,1.1,0.0,65,0.00,CLR,SKC,0.00,WeatherDisplay:10.37,2013-06-17 18:53:00,
2013-06-17 14:58:00,86.0,72.4,29.96,West,270,1.1,1.1,64,0.00,CLR,SKC,0.00,WeatherDisplay:10.37,2013-06-17 18:58:00,
2013-06-17 15:00:00,74.1,70.7,29.94,ESE,112,3.0,5.0,89,0.00,CLR,SKC,0.00,WeatherDisplay:10.37,2013-06-17 19:00:00,
2013-06-17 15:03:00,86.9,73.3,29.97,NW,315,6.9,6.9,64,0.00,CLR,SKC,0.00,WeatherDisplay:10.37,2013-06-17 19:03:00,
2013-06-17 15:08:00,86.5,72.0,29.97,NW,315,8.1,8.1,62,0.00,CLR,SKC,0.00,WeatherDisplay:10.37,2013-06-17 19:08:00,
2013-06-17 15:13:00,86.9,73.3,29.96,NW,315,3.5,3.5,64,0.00,CLR,SKC,0.00,WeatherDisplay:10.37,2013-06-17 19:13:00,
2013-06-17 15:15:00,73.9,70.8,29.94,East,90,3.0,5.0,90,0.00,CLR,SKC,0.00,WeatherDisplay:10.37,2013-06-17 19:15:00,
2013-06-17 15:18:00,88.2,72.5,29.96,East,90,3.5,3.5,60,0.00,CLR,SKC,0.00,WeatherDisplay:10.37,2013-06-17 19:18:00,
2013-06-17 15:23:00,88.5,72.4,29.96,North,0,5.8,5.8,59,0.00,CLR,SKC,0.00,WeatherDisplay:10.37,2013-06-17 19:23:00,
2013-06-17 15:28:00,89.6,73.9,29.96,North,0,2.3,2.3,60,0.00,CLR,SKC,0.00,WeatherDisplay:10.37,2013-06-17 19:28:00,
2013-06-17 15:30:00,73.8,70.6,29.93,East,90,3.0,5.0,90,0.00,CLR,SKC,0.00,WeatherDisplay:10.37,2013-06-17 19:30:00,
2013-06-17 15:33:00,90.0,71.6,29.96,North,0,6.9,6.9,55,0.00,CLR,SKC,0.00,WeatherDisplay:10.37,2013-06-17 19:33:00,
2013-06-17 15:38:00,89.4,71.7,29.95,East,90,3.5,3.5,56,0.00,CLR,SKC,0.00,WeatherDisplay:10.37,2013-06-17 19:38:00,
2013-06-17 15:43:00,88.9,71.2,29.95,SE,135,4.6,4.6,56,0.00,CLR,SKC,0.00,WeatherDisplay:10.37,2013-06-17 19:43:00,
2013-06-17 15:45:00,73.6,70.8,29.92,SE,135,2.0,5.0,91,0.00,CLR,SKC,0.00,WeatherDisplay:10.37,2013-06-17 19:45:00,
2013-06-17 15:48:00,88.2,70.0,29.95,East,90,5.8,6.0,55,0.00,CLR,SKC,0.00,WeatherDisplay:10.37,2013-06-17 19:48:00,
2013-06-17 15:53:00,87.6,69.5,29.95,East,90,5.8,5.8,55,0.00,CLR,SKC,0.00,WeatherDisplay:10.37,2013-06-17 19:53:00,
2013-06-17 15:58:00,88.9,71.2,29.95,East,90,5.8,5.8,56,0.00,CLR,SKC,0.00,WeatherDisplay:10.37,2013-06-17 19:58:00,
2013-06-17 16:00:00,73.2,70.4,29.91,East,90,3.0,4.0,91,0.00,CLR,SKC,0.00,WeatherDisplay:10.37,2013-06-17 20:00:00,
2013-06-17 16:03:00,89.1,70.3,29.95,East,90,8.1,8.1,54,0.00,CLR,SKC,0.00,WeatherDisplay:10.37,2013-06-17 20:03:00,
2013-06-17 16:08:00,89.2,70.4,29.94,NNW,338,5.8,5.8,54,0.00,CLR,SKC,0.00,WeatherDisplay:10.37,2013-06-17 20:08:00,
2013-06-17 16:13:00,90.1,70.7,29.94,WNW,292,3.5,3.5,53,0.00,CLR,SKC,0.00,WeatherDisplay:10.37,2013-06-17 20:13:00,
2013-06-17 16:15:00,72.9,70.4,29.91,SE,135,3.0,7.0,92,0.00,CLR,SKC,0.00,WeatherDisplay:10.37,2013-06-17 20:15:00,
2013-06-17 16:18:00,90.3,70.3,29.94,SE,135,3.5,3.5,52,0.00,CLR,SKC,0.00,WeatherDisplay:10.37,2013-06-17 20:18:00,
2013-06-17 16:23:00,90.0,69.4,29.93,NE,45,5.8,5.8,51,0.00,CLR,SKC,0.00,WeatherDisplay:10.37,2013-06-17 20:23:00,
2013-06-17 16:28:00,90.3,70.3,29.93,South,180,6.9,6.9,52,0.00,CLR,SKC,0.00,WeatherDisplay:10.37,2013-06-17 20:28:00,
2013-06-17 16:30:00,72.3,69.9,29.91,East,90,3.0,7.0,92,0.00,CLR,SKC,0.00,WeatherDisplay:10.37,2013-06-17 20:30:00,
2013-06-17 16:33:00,90.7,68.9,29.93,North,0,5.8,5.8,49,0.00,CLR,SKC,0.00,WeatherDisplay:10.37,2013-06-17 20:33:00,
2013-06-17 16:38:00,90.9,70.8,29.93,NW,315,3.5,3.5,52,0.00,CLR,SKC,0.00,WeatherDisplay:10.37,2013-06-17 20:38:00,
2013-06-17 16:43:00,91.0,70.4,29.93,SE,135,3.5,3.5,51,0.00,CLR,SKC,0.00,WeatherDisplay:10.37,2013-06-17 20:43:00,
2013-06-17 16:45:00,72.0,69.8,29.91,East,90,3.0,5.0,93,0.00,CLR,SKC,0.00,WeatherDisplay:10.37,2013-06-17 20:45:00,
2013-06-17 16:48:00,91.0,70.4,29.93,North,0,3.5,3.5,51,0.00,CLR,SKC,0.00,WeatherDisplay:10.37,2013-06-17 20:48:00,
2013-06-17 16:53:00,90.7,70.6,29.93,NE,45,9.2,9.2,52,0.00,CLR,SKC,0.00,WeatherDisplay:10.37,2013-06-17 20:53:00,
2013-06-17 16:58:00,91.0,68.6,29.93,North,0,6.9,6.9,48,0.00,CLR,SKC,0.00,WeatherDisplay:10.37,2013-06-17 20:58:00,
2013-06-17 17:00:00,71.8,70.0,29.90,North,0,0.0,4.0,94,0.00,CLR,SKC,0.00,WeatherDisplay:10.37,2013-06-17 21:00:00,
2013-06-17 17:03:00,90.9,69.7,29.93,North,0,5.8,5.8,50,0.00,CLR,SKC,0.00,WeatherDisplay:10.37,2013-06-17 21:03:00,
2013-06-17 17:08:00,91.0,69.2,29.93,NW,315,5.8,5.8,49,0.00,CLR,SKC,0.00,WeatherDisplay:10.37,2013-06-17 21:08:00,
2013-06-17 17:13:00,91.2,69.4,29.92,North,0,2.3,2.3,49,0.00,CLR,SKC,0.00,WeatherDisplay:10.37,2013-06-17 21:13:00,
2013-06-17 17:15:00,71.6,69.8,29.91,NE,45,1.0,4.0,94,0.00,CLR,SKC,0.00,WeatherDisplay:10.37,2013-06-17 21:15:00,
2013-06-17 17:18:00,91.0,68.6,29.93,South,180,3.5,3.5,48,0.00,CLR,SKC,0.00,WeatherDisplay:10.37,2013-06-17 21:18:00,
2013-06-17 17:23:00,90.5,68.1,29.93,North,0,4.6,4.6,48,0.00,CLR,SKC,0.00,WeatherDisplay:10.37,2013-06-17 21:23:00,
2013-06-17 17:28:00,89.8,68.1,29.93,NE,45,5.8,5.8,49,0.00,CLR,SKC,0.00,WeatherDisplay:10.37,2013-06-17 21:28:00,
2013-06-17 17:30:00,71.4,69.9,29.90,NNW,338,1.0,4.0,95,0.00,CLR,SKC,0.00,WeatherDisplay:10.37,2013-06-17 21:30:00,
2013-06-17 17:33:00,89.6,69.1,29.93,East,90,8.1,8.1,51,0.00,CLR,SKC,0.00,WeatherDisplay:10.37,2013-06-17 21:33:00,
2013-06-17 17:38:00,89.6,68.5,29.92,SSW,202,5.8,5.8,50,0.00,CLR,SKC,0.00,WeatherDisplay:10.37,2013-06-17 21:38:00,
2013-06-17 17:43:00,89.4,68.9,29.92,East,90,8.1,8.1,51,0.00,CLR,SKC,0.00,WeatherDisplay:10.37,2013-06-17 21:43:00,
2013-06-17 17:45:00,71.2,69.7,29.90,NE,45,1.0,3.0,95,0.00,CLR,SKC,0.00,WeatherDisplay:10.37,2013-06-17 21:45:00,
2013-06-17 17:48:00,88.7,69.4,29.92,East,90,8.1,8.1,53,0.00,CLR,SKC,0.00,WeatherDisplay:10.37,2013-06-17 21:48:00,
2013-06-17 17:53:00,89.1,69.7,29.92,East,90,5.8,5.8,53,0.00,CLR,SKC,0.00,WeatherDisplay:10.37,2013-06-17 21:53:00,
2013-06-17 17:58:00,89.1,69.7,29.92,East,90,5.8,5.8,53,0.00,CLR,SKC,0.00,WeatherDisplay:10.37,2013-06-17 21:58:00,
2013-06-17 18:00:00,70.9,69.1,29.90,North,0,0.0,2.0,94,0.00,CLR,SKC,0.00,WeatherDisplay:10.37,2013-06-17 22:00:00,
2013-06-17 18:03:00,88.7,69.9,29.92,East,90,8.1,8.1,54,0.00,CLR,SKC,0.00,WeatherDisplay:10.37,2013-06-17 22:03:00,
2013-06-17 18:15:00,70.7,69.2,29.88,East,90,1.0,3.0,95,0.00,CLR,SKC,0.00,WeatherDisplay:10.37,2013-06-17 22:15:00,
2013-06-17 18:30:00,70.5,69.0,29.89,East,90,3.0,4.0,95,0.00,CLR,SKC,0.00,WeatherDisplay:10.37,2013-06-17 22:30:00,
2013-06-17 18:45:00,70.5,69.0,29.89,East,90,5.0,6.0,95,0.00,CLR,SKC,0.00,WeatherDisplay:10.37,2013-06-17 22:45:00,
2013-06-17 19:00:00,70.3,69.1,29.89,NE,45,5.0,6.0,96,0.00,CLR,SKC,0.00,WeatherDisplay:10.37,2013-06-17 23:00:00,
2013-06-17 19:15:00,70.3,69.1,29.90,East,90,3.0,6.0,96,0.00,CLR,SKC,0.00,WeatherDisplay:10.37,2013-06-17 23:15:00,
2013-06-17 19:30:00,70.5,69.3,29.90,East,90,3.0,5.0,96,0.00,CLR,SKC,0.00,WeatherDisplay:10.37,2013-06-17 23:30:00,
2013-06-17 19:45:00,70.7,69.8,29.90,East,90,1.0,4.0,97,0.00,CLR,SKC,0.00,WeatherDisplay:10.37,2013-06-17 23:45:00,
2013-06-17 20:00:00,71.1,69.9,29.90,East,90,3.0,5.0,96,0.00,CLR,SKC,0.00,WeatherDisplay:10.37,2013-06-18 00:00:00,
2013-06-17 20:15:00,71.2,70.0,29.91,East,90,3.0,5.0,96,0.00,CLR,SKC,0.00,WeatherDisplay:10.37,2013-06-18 00:15:00,
2013-06-17 20:30:00,71.4,70.2,29.91,SE,135,5.0,8.0,96,0.00,CLR,SKC,0.00,WeatherDisplay:10.37,2013-06-18 00:30:00,
2013-06-17 20:45:00,71.8,70.0,29.91,East,90,3.0,8.0,94,0.00,CLR,SKC,0.00,WeatherDisplay:10.37,2013-06-18 00:45:00,
2013-06-17 21:00:00,72.1,70.3,29.91,East,90,1.0,4.0,94,0.00,CLR,SKC,0.00,WeatherDisplay:10.37,2013-06-18 01:00:00,
2013-06-17 21:15:00,72.5,70.4,29.91,NNE,22,1.0,3.0,93,0.00,CLR,SKC,0.00,WeatherDisplay:10.37,2013-06-18 01:15:00,
2013-06-17 21:30:00,72.9,70.4,29.91,North,0,3.0,4.0,92,0.00,CLR,SKC,0.00,WeatherDisplay:10.37,2013-06-18 01:30:00,
2013-06-17 21:45:00,73.2,70.4,29.91,North,0,1.0,4.0,91,0.00,CLR,SKC,0.00,WeatherDisplay:10.37,2013-06-18 01:45:00,
2013-06-17 22:00:00,74.5,71.7,29.91,North,0,1.0,4.0,91,0.00,CLR,SKC,0.00,WeatherDisplay:10.37,2013-06-18 02:00:00,
2013-06-17 22:15:00,75.0,71.6,29.90,NW,315,1.0,2.0,89,0.00,CLR,SKC,0.00,WeatherDisplay:10.37,2013-06-18 02:15:00,
2013-06-17 22:30:00,75.4,71.2,29.90,East,90,1.0,3.0,87,0.00,CLR,SKC,0.00,WeatherDisplay:10.37,2013-06-18 02:30:00,
2013-06-17 22:45:00,75.7,71.6,29.90,NW,315,1.0,3.0,87,0.00,CLR,SKC,0.00,WeatherDisplay:10.37,2013-06-18 02:45:00,
2013-06-17 23:00:00,76.8,72.3,29.89,SE,135,1.0,3.0,86,0.00,CLR,SKC,0.00,WeatherDisplay:10.37,2013-06-18 03:00:00,
2013-06-17 23:15:00,79.5,72.4,29.89,ESE,112,1.0,4.0,79,0.00,CLR,SKC,0.00,WeatherDisplay:10.37,2013-06-18 03:15:00,
2013-06-17 23:30:00,81.1,72.1,29.89,East,90,1.0,4.0,74,0.00,CLR,SKC,0.00,WeatherDisplay:10.37,2013-06-18 03:30:00,
2013-06-17 23:45:00,78.6,71.2,29.89,NW,315,1.0,2.0,78,0.00,CLR,SKC,0.00,WeatherDisplay:10.37,2013-06-18 03:45:00,